Milnathort, United Kingdom
Current Conditions -  °F | °C
As of 6:50 AM on Monday 22 Dec 2014 (Local Time) from EGPH Reporting Station
Light Rain Light Rain  
Wind Chill: 38°   Ceiling: 4600
Heat Index: 45°   Visibility: 6mi
Dew Point: 43°   Wind: 14mph
Humidity: 93%   Direction: 250°WSW
Pressure: 29.59"   Gusts: NA
Location:  56.23°N, 3.42°W
Report Text: EGPH 220650Z 25012KT 9999 -RA SCT038 BKN046 07/06 Q1002
Loading
Personal Weather Stations






























Interactive Weather Map New forecast layout! Learn more

10-Day Weather Forecast

Advertisements
Track Severe Weather on mobile